East Vail, Colorado
Current Conditions -  °F | °C
As of 8:17 AM on Thursday 30 Oct 2014 (Local Time) from KCCU Reporting Station
Clear Clear  
Wind Chill: 21°   Ceiling: Unl
Heat Index: 30°   Visibility: NA
Dew Point: 18°   Wind: 10mph
Humidity: 60%   Direction: 260°W
Pressure: 30.56"   Gusts: NA
Location:  39.5908°N, 106.4°W
Report Text: KCCU 301417Z AUTO 26009KT CLR M01/M08 A3056 RMK AO2 PWINO
Loading
Personal Weather Stations






























Interactive Weather Map
Tropical Storm Tracking
New forecast layout! Learn more

10-Day Weather Forecast

Advertisements
Track Severe Weather on mobile